Topaz, Idaho
Current Conditions -  °F | °C
As of 9:53 AM on Thursday 23 Oct 2014 (Local Time) from KPIH Reporting Station
Clear Clear  
Wind Chill: 50°   Ceiling: Unl
Heat Index: 50°   Visibility: 10mi
Dew Point: 32°   Wind: 9mph
Humidity: 50%   Direction: 20°NNE
Pressure: 30.11"   Gusts: NA
Location:  42.5711°N, 112.021°W
Report Text: KPIH 231553Z 02008KT 10SM CLR 10/00 A3011 RMK AO2 SLP182 T01000000
Loading
Personal Weather Stations






























Interactive Weather Map
Tropical Storm Tracking
New forecast layout! Learn more

10-Day Weather Forecast

Advertisements
Track Severe Weather on mobile